Osaka International Airport
RJOO : now visible

Airfield :











YOU CAN JOIN US ON...

 
LOGIN :

Register | Disclaimer

   EN    FR    IT 

 









Legend :    VFR   Marginal VFR   IFR   Intensive IFR   Very Intensive IFR
Visi :
Ceiling :
>= 8 km
>= 3000ft
5 to 8 km
1000 to 3000 ft
1500m to 5 km
500 to 1000 ft
800 to 1500m
200 to 500 ft
< 800m
< 200 ft
Symbols :   Thunderstorms  Fog  Heavy snow  Heavy precipitations  Wind > 20 kt






- Airport Elevation : 50 ft
- IATA code : ITM


RJOO - Osaka International

CURRENT METAR :
  • 290600Z 33013KT 9999 FEW030 BKN045 12/04 Q1017 RMK 1CU030 5CU045 A3004

EXPIRED METARs :
  • 290500Z 34015KT 310V020 9999 FEW030 SCT040 12/04 Q1017 RMK 1CU030 3CU040 A3005
  • 290400Z 35014G24KT 9999 FEW030 SCT040 12/04 Q1018

TAF TAF RJOO
Valid from the 29 at 06:00 until the 30 at 12:00 UTC


290506Z 2906/3012 35015KT 9999 FEW025
BECMG 2910/2912 32005KT
BECMG 3000/3003 11004KT
BECMG 3009/3012 34005KT



MET'MAP, your aeronautical weather chart ! - Copyright ORBIFLY December 2007 - Disclaimer

ORBIFLY MET'MAP TEAM :

Programming & Development : Alexandra Zaïnal
Concept & original design : Baudouin d'Aumeries
Assistance for programming : Marc-Olivier Méhu
Technical & hardware support : Manuel Goepfert

Contact : metmap@orbifly.com




SOURCES & CREDITS :

   NOAA       Earth
Advisory